• Join FlightAware (Why Join?)
  • Login
  • US Flag 
03:43AM EST


 

Airport Tracker/Info


-or-


 

Live Flight TrackerFlight Track Log ✈ N510SR ✈ 30-Sep-2013 ✈ KBOS - KTEB

Flight Track Log - Related Links

Times and Time Zones

All times are in EDT time to prevent confusion due to time zone crossing. See the N510SR flight status page for this flight to view local times or setup timezone preferences in your user account.

Time Position Orientation Groundspeed Altitude Reporting Facility
EDT Latitude Longitude Course Direction KTS MPH feet Rate Location/Type
02:24PM 42.3667 -70.9833 79° East 170 196 800  Level KA90
02:25PM 42.3833 -70.8667 79° East 234 269 5,900 3,540 Climbing KA90
02:26PM 42.3847 -70.7636 89° East 257 296 9,900 3,060 Climbing Boston Center
02:27PM 42.3178 -70.7319 161° South 297 342 12,600 2,820 Climbing Boston Center
02:28PM 42.2883 -70.8569 252° West 338 389 15,700 1,680 Climbing Boston Center
02:29PM 42.2817 -70.9961 266° West 374 430 16,000 120 Climbing Boston Center
02:30PM 42.2733 -71.1431 266° West 393 452 16,000  Level Boston Center
02:31PM 42.2633 -71.2975 265° West 388 447 16,000  Level Boston Center
02:32PM 42.2539 -71.4406 265° West 385 443 16,000  Level Boston Center
02:33PM 42.2447 -71.5819 265° West 382 440 16,000  Level Boston Center
02:34PM 42.2344 -71.7350 265° West 382 440 16,000  Level Boston Center
02:35PM 42.2244 -71.8761 265° West 381 438 16,000  Level Boston Center
02:37PM 42.2133 -72.0203 264° West 384 442 16,000  Level Boston Center
02:38PM 42.2025 -72.1728 265° West 381 438 16,100  Climbing Boston Center
02:39PM 42.1892 -72.3478 264° West 384 442 16,100  Level Boston Center
02:40PM 42.1789 -72.4897 264° West 383 441 16,100  Level Boston Center
02:41PM 42.1681 -72.6425 265° West 384 442 16,100  Level Boston Center
02:42PM 42.1594 -72.7842 265° West 383 441 16,100  Level Boston Center
02:43PM 42.1500 -72.9256 265° West 382 440 16,100  Level Boston Center
02:44PM 42.1408 -73.0783 265° West 382 440 16,100  Level Boston Center
02:45PM 42.1342 -73.1872 265° West 382 440 16,100  Level Boston Center
02:46PM 42.1236 -73.3578 265° West 387 445 16,100  Level Boston Center
02:47PM 42.1131 -73.5044 265° West 391 450 16,100  Level Boston Center
02:48PM 42.1069 -73.6461 267° West 381 438 16,100  Level Boston Center
02:49PM 42.0683 -73.8003 251° West 390 449 16,100  Level Boston Center
02:50PM 41.9997 -73.9119 230° Southwest 382 440 16,100 -960 Level Boston Center
02:51PM 41.9308 -74.0325 232° Southwest 378 435 14,200 -2,460 Descending Boston Center
02:52PM 41.8681 -74.1381 231° Southwest 365 420 11,100 -2,040 Descending Boston Center
02:53PM 41.8083 -74.2406 232° Southwest 352 405 10,000 -540 Descending Boston Center
02:54PM 41.7372 -74.3411 227° Southwest 351 404 10,100 -60 Climbing Boston Center
02:55PM 41.6561 -74.4072 211° Southwest 343 395 9,900 -840 Descending Boston Center
02:56PM 41.5792 -74.4664 210° Southwest 301 346 8,300 -1,260 Descending Boston Center
02:57PM 41.4944 -74.5289 209° Southwest 286 329 7,100 -840 Descending Boston Center
02:58PM 41.4242 -74.5783 208° Southwest 287 330 6,600 -540 Descending Boston Center
03:00PM 41.3533 -74.6147 201° Southwest 276 318 6,100 -360 Descending Boston Center
03:00PM 41.3000 -74.6333 195° South 276 318 6,100 -900 Level New York TRACON
03:01PM 41.2167 -74.6167 171° South 270 311 4,600 -1,020 Descending New York TRACON
03:02PM 41.1500 -74.6000 169° South 267 307 4,000 -300 Descending New York TRACON
03:03PM 41.0833 -74.5833 169° South 271 312 4,000  Level New York TRACON
03:04PM 41.0000 -74.5667 171° South 267 307 4,100  Climbing New York TRACON
03:05PM 40.9333 -74.5833 191° South 265 305 4,000  Descending New York TRACON
03:06PM 40.8667 -74.5667 169° South 229 264 4,100 -480 Climbing New York TRACON
03:07PM 40.8000 -74.5500 169° South 223 257 3,100 -540 Descending New York TRACON
03:08PM 40.7667 -74.5000 131° Southeast 231 266 3,100  Level New York TRACON
03:09PM 40.7333 -74.4333 123° Southeast 195 224 3,100  Level New York TRACON
03:10PM 40.7167 -74.3667 108° East 189 217 3,100  Level New York TRACON
03:11PM 40.7000 -74.3000 108° East 190 219 3,100 -300 Level New York TRACON
03:12PM 40.7333 -74.2333 57° Northeast 187 215 2,500 -660 Descending New York TRACON
03:13PM 40.7667 -74.1833 49° Northeast 199 229 1,800 -540 Descending New York TRACON
03:14PM 40.8000 -74.1500 37° Northeast 170 196 1,500 -360 Descending New York TRACON
03:15PM 40.8167 -74.0833 72° East 172 198 1,200 -300 Descending New York TRACON